createdAt,value
2022-11-23T00:02:56.474Z,0.53
2022-11-23T00:06:05.526Z,0.51
2022-11-23T00:09:14.580Z,0.68
2022-11-23T00:12:20.536Z,0.72
2022-11-23T00:15:27.277Z,0.56
2022-11-23T00:18:35.877Z,0.56
2022-11-23T00:21:42.847Z,0.59
2022-11-23T00:24:48.781Z,0.54
2022-11-23T00:27:55.540Z,0.42
2022-11-23T00:31:02.117Z,0.14
2022-11-23T00:34:11.446Z,0.01
2022-11-23T00:37:19.409Z,0.15
2022-11-23T00:40:26.165Z,0.18
2022-11-23T00:43:33.154Z,0.21
2022-11-23T00:46:39.873Z,0.24
2022-11-23T00:49:48.402Z,0.19
2022-11-23T00:52:57.664Z,0.15
2022-11-23T00:56:03.868Z,0.30
2022-11-23T00:59:10.721Z,0.34
2022-11-23T01:02:17.473Z,0.38
2022-11-23T01:05:26.772Z,0.35
2022-11-23T01:08:32.698Z,0.32
2022-11-23T01:11:39.394Z,0.40
2022-11-23T01:14:45.375Z,0.51
2022-11-23T01:17:52.099Z,0.43
2022-11-23T01:21:03.741Z,0.50
2022-11-23T01:24:16.062Z,0.41
2022-11-23T01:27:22.130Z,0.47
2022-11-23T01:30:30.678Z,0.40
2022-11-23T01:33:37.378Z,0.27
2022-11-23T01:36:47.679Z,0.21
2022-11-23T01:39:53.695Z,0.32
2022-11-23T01:43:04.010Z,0.24
2022-11-23T01:46:12.213Z,0.17
2022-11-23T01:49:19.712Z,0.27
2022-11-23T01:52:30.224Z,0.25
2022-11-23T01:55:39.822Z,0.22
2022-11-23T01:58:54.967Z,0.19
2022-11-23T02:02:02.214Z,0.09
2022-11-23T02:05:10.826Z,0.22
2022-11-23T02:08:23.051Z,0.22
2022-11-23T02:11:29.116Z,0.30
2022-11-23T02:14:36.401Z,0.39
2022-11-23T02:17:42.543Z,0.33
2022-11-23T02:20:50.188Z,0.19
2022-11-23T02:24:12.943Z,0.27
2022-11-23T02:27:24.559Z,0.40
2022-11-23T02:30:35.006Z,0.32
2022-11-23T02:33:42.074Z,0.23
2022-11-23T02:36:52.177Z,0.27
2022-11-23T02:40:07.630Z,0.06
2022-11-23T02:46:37.892Z,0.24
2022-11-23T02:49:45.958Z,0.05
2022-11-23T02:52:52.634Z,0.04
2022-11-23T02:55:58.485Z,0.07
2022-11-23T02:59:08.166Z,-0.09
2022-11-23T03:02:14.369Z,-0.07
2022-11-23T03:05:21.467Z,-0.20
2022-11-23T03:08:30.898Z,-0.18
2022-11-23T03:11:39.602Z,-0.20
2022-11-23T03:14:48.204Z,-0.24
2022-11-23T03:17:57.076Z,-0.30
2022-11-23T03:21:07.146Z,-0.36
2022-11-23T03:24:16.500Z,-0.26
2022-11-23T03:27:24.322Z,-0.27
2022-11-23T03:30:33.977Z,-0.42
2022-11-23T03:33:41.886Z,-0.47
2022-11-23T03:36:49.131Z,-0.50
2022-11-23T03:39:55.209Z,-0.36
2022-11-23T03:43:01.988Z,-0.48
2022-11-23T03:46:10.734Z,-0.44
2022-11-23T03:49:17.590Z,-0.54
2022-11-23T03:52:24.107Z,-0.49
2022-11-23T03:55:31.166Z,-0.37
2022-11-23T03:58:37.882Z,-0.28
2022-11-23T04:01:50.814Z,-0.27
2022-11-23T04:05:01.506Z,-0.24
2022-11-23T04:08:28.550Z,-0.25
2022-11-23T04:11:35.845Z,-0.17
2022-11-23T04:14:42.960Z,-0.18
2022-11-23T04:17:51.741Z,-0.21
2022-11-23T04:20:58.747Z,-0.50
2022-11-23T04:24:04.965Z,-0.29
2022-11-23T04:27:14.536Z,-0.18
2022-11-23T04:30:22.278Z,-0.02
2022-11-23T04:33:32.020Z,0.04
2022-11-23T04:36:39.032Z,0.01
2022-11-23T04:39:48.234Z,-0.00
2022-11-23T04:43:02.109Z,0.06
2022-11-23T04:46:13.757Z,0.09
2022-11-23T04:49:23.149Z,0.12
2022-11-23T04:52:30.180Z,0.10
2022-11-23T04:55:37.117Z,0.01
2022-11-23T04:58:45.011Z,0.09
2022-11-23T05:01:52.422Z,0.11
2022-11-23T05:05:20.962Z,0.19
2022-11-23T05:08:26.954Z,0.18
2022-11-23T05:11:42.163Z,0.18
2022-11-23T05:14:49.531Z,0.10
2022-11-23T05:18:06.574Z,0.15
2022-11-23T05:21:16.987Z,0.18
2022-11-23T05:24:23.979Z,0.25
2022-11-23T05:27:46.005Z,0.23
2022-11-23T05:30:54.093Z,0.23
2022-11-23T05:34:00.135Z,0.35
2022-11-23T05:37:19.995Z,0.29
2022-11-23T05:40:48.128Z,0.24
2022-11-23T05:43:55.600Z,0.28
2022-11-23T05:47:05.786Z,0.27
2022-11-23T05:50:14.377Z,0.30
2022-11-23T05:53:28.284Z,0.39
2022-11-23T05:56:42.351Z,0.45
2022-11-23T06:00:02.157Z,0.46
2022-11-23T06:03:19.329Z,0.48
2022-11-23T06:06:25.775Z,0.62
2022-11-23T06:09:36.422Z,0.55
2022-11-23T06:12:46.780Z,0.52
2022-11-23T06:15:57.320Z,0.51
2022-11-23T06:19:10.780Z,0.30
2022-11-23T06:22:22.559Z,0.44
2022-11-23T06:25:38.953Z,0.49
2022-11-23T06:29:04.332Z,0.64
2022-11-23T06:32:10.342Z,0.48
2022-11-23T06:35:17.877Z,0.51
2022-11-23T06:38:27.154Z,0.59
2022-11-23T06:41:51.939Z,0.43
2022-11-23T06:44:57.963Z,0.31
2022-11-23T06:48:04.898Z,0.41
2022-11-23T06:51:14.306Z,0.10
2022-11-23T06:54:24.607Z,-0.11
2022-11-23T06:57:36.031Z,-0.09
2022-11-23T07:00:43.382Z,-0.02
2022-11-23T07:03:50.365Z,-0.06
2022-11-23T07:07:06.566Z,0.08
2022-11-23T07:10:21.093Z,0.14
2022-11-23T07:13:37.807Z,0.10
2022-11-23T07:16:43.946Z,0.23
2022-11-23T07:20:04.880Z,0.19
2022-11-23T07:23:25.955Z,0.10
2022-11-23T07:26:48.974Z,0.19
2022-11-23T07:30:14.698Z,0.34
2022-11-23T07:33:35.587Z,0.42
2022-11-23T07:37:01.840Z,0.32
2022-11-23T07:40:25.107Z,0.25
2022-11-23T07:43:45.930Z,0.43
2022-11-23T07:47:10.380Z,0.33
2022-11-23T07:50:32.492Z,0.27
2022-11-23T07:53:39.597Z,0.38
2022-11-23T07:56:45.547Z,0.64
2022-11-23T07:59:52.263Z,0.50
2022-11-23T08:06:28.337Z,0.58
2022-11-23T08:09:34.344Z,0.40
2022-11-23T08:12:41.173Z,0.44
2022-11-23T08:15:53.277Z,0.70
2022-11-23T08:19:03.597Z,0.94
2022-11-23T08:22:12.370Z,1.00
2022-11-23T08:25:22.399Z,0.96
2022-11-23T08:28:28.474Z,1.09
2022-11-23T08:31:35.322Z,0.95
2022-11-23T08:34:46.903Z,0.96
2022-11-23T08:37:53.824Z,1.10
2022-11-23T08:41:02.520Z,1.28
2022-11-23T08:44:12.431Z,1.10
2022-11-23T08:47:19.837Z,1.17
2022-11-23T08:50:29.485Z,1.02
2022-11-23T08:53:36.778Z,1.12
2022-11-23T08:56:43.531Z,1.25
2022-11-23T08:59:49.486Z,1.48
2022-11-23T09:02:58.465Z,1.51
2022-11-23T09:06:07.644Z,1.45
2022-11-23T09:09:14.706Z,1.19
2022-11-23T09:12:20.921Z,1.30
2022-11-23T09:15:27.696Z,1.32
2022-11-23T09:18:35.678Z,1.09
2022-11-23T09:21:45.238Z,0.98
2022-11-23T09:24:51.103Z,0.94
2022-11-23T09:28:02.160Z,1.15
2022-11-23T09:31:08.995Z,1.25
2022-11-23T09:34:16.516Z,1.10
2022-11-23T09:37:26.149Z,1.08
2022-11-23T09:40:39.432Z,1.37
2022-11-23T09:44:05.065Z,1.21
2022-11-23T09:47:46.702Z,1.28
2022-11-23T09:50:59.624Z,1.29
2022-11-23T09:54:27.801Z,1.46
2022-11-23T09:57:39.229Z,1.24
2022-11-23T10:00:53.656Z,1.52
2022-11-23T10:04:01.504Z,1.47
2022-11-23T10:07:35.735Z,1.24
2022-11-23T10:10:55.808Z,1.44
2022-11-23T10:14:29.900Z,1.40
2022-11-23T10:18:03.046Z,1.54
2022-11-23T10:21:30.172Z,1.60
2022-11-23T10:24:45.527Z,1.94
2022-11-23T10:28:03.337Z,2.22
2022-11-23T10:31:19.635Z,2.07
2022-11-23T10:34:49.672Z,1.81
2022-11-23T10:38:03.759Z,1.91
2022-11-23T10:41:16.021Z,1.95
2022-11-23T10:44:37.129Z,2.11
2022-11-23T10:47:52.283Z,2.25
2022-11-23T10:51:22.686Z,2.43
2022-11-23T10:54:35.317Z,2.39
2022-11-23T10:57:48.324Z,2.64
2022-11-23T11:01:03.876Z,2.82
2022-11-23T11:04:27.779Z,2.70
2022-11-23T11:07:35.194Z,2.70
2022-11-23T11:10:50.310Z,2.70
2022-11-23T11:14:08.670Z,2.57
2022-11-23T11:17:30.819Z,2.30
2022-11-23T11:20:39.547Z,2.53
2022-11-23T11:23:49.733Z,2.59
2022-11-23T11:27:04.538Z,2.40
2022-11-23T11:30:25.597Z,2.48
2022-11-23T11:33:49.715Z,2.69
2022-11-23T11:37:09.135Z,2.65
2022-11-23T11:40:29.079Z,2.71
2022-11-23T11:43:44.015Z,2.77
2022-11-23T11:47:00.971Z,2.87
2022-11-23T11:50:31.389Z,2.65
2022-11-23T11:53:52.485Z,2.47
2022-11-23T11:57:07.926Z,2.27
2022-11-23T12:00:20.824Z,2.27
2022-11-23T12:03:44.487Z,2.19
2022-11-23T12:07:07.338Z,2.13
2022-11-23T12:10:21.888Z,2.21
2022-11-23T12:13:35.110Z,2.26
2022-11-23T12:20:45.393Z,2.23
2022-11-23T12:24:13.885Z,2.27
2022-11-23T12:27:48.259Z,2.21
2022-11-23T12:31:13.565Z,2.27
2022-11-23T12:34:51.017Z,2.21
2022-11-23T12:38:20.743Z,2.20
2022-11-23T12:41:45.276Z,2.09
2022-11-23T12:45:20.442Z,2.23
2022-11-23T12:48:49.041Z,2.38
2022-11-23T12:52:13.452Z,2.42
2022-11-23T12:55:35.995Z,2.26
2022-11-23T12:58:51.042Z,2.27
2022-11-23T13:02:06.924Z,2.22
2022-11-23T13:06:15.088Z,2.13
2022-11-23T13:09:50.539Z,2.19
2022-11-23T13:13:40.700Z,2.29
2022-11-23T13:17:24.358Z,1.99
2022-11-23T13:21:07.294Z,1.98
2022-11-23T13:24:35.278Z,1.86
2022-11-23T13:27:57.464Z,1.91
2022-11-23T13:31:25.646Z,2.14
2022-11-23T13:34:51.326Z,2.19
2022-11-23T13:38:27.387Z,2.15
2022-11-23T13:42:03.673Z,2.09
2022-11-23T13:45:28.863Z,2.07
2022-11-23T13:49:00.050Z,2.16
2022-11-23T13:52:36.574Z,2.11
2022-11-23T13:55:43.604Z,2.04
2022-11-23T13:58:57.573Z,2.03
2022-11-23T14:02:31.218Z,1.94
2022-11-23T14:06:01.963Z,2.09
2022-11-23T14:09:25.211Z,2.03
2022-11-23T14:12:46.028Z,1.70
2022-11-23T14:16:03.100Z,1.88
2022-11-23T14:19:31.435Z,1.78
2022-11-23T14:23:03.364Z,1.85
2022-11-23T14:26:36.647Z,1.85
2022-11-23T14:30:22.838Z,1.92
2022-11-23T14:33:45.859Z,1.84
2022-11-23T14:37:05.860Z,1.70
2022-11-23T14:40:33.837Z,1.68
2022-11-23T14:43:45.824Z,1.66
2022-11-23T14:47:06.647Z,1.87
2022-11-23T14:50:27.735Z,1.93
2022-11-23T14:53:46.722Z,1.70
2022-11-23T14:57:00.857Z,1.72
2022-11-23T15:00:28.950Z,1.56
2022-11-23T15:03:50.308Z,1.50
2022-11-23T15:07:07.008Z,1.48
2022-11-23T15:10:33.912Z,1.39
2022-11-23T15:13:48.626Z,1.30
2022-11-23T15:16:57.285Z,1.29
2022-11-23T15:20:07.362Z,1.41
2022-11-23T15:23:25.242Z,1.44
2022-11-23T15:26:48.037Z,1.64
2022-11-23T15:29:58.584Z,1.57
2022-11-23T15:33:14.455Z,1.54
2022-11-23T15:36:28.228Z,1.47
2022-11-23T15:39:35.723Z,1.46
2022-11-23T15:42:42.736Z,1.36
2022-11-23T15:46:09.087Z,1.31
2022-11-23T15:49:20.856Z,1.22
2022-11-23T15:52:30.259Z,1.27
2022-11-23T15:55:37.769Z,1.33
2022-11-23T15:58:54.454Z,1.37
2022-11-23T16:02:03.353Z,1.35
2022-11-23T16:05:22.510Z,1.36
2022-11-23T16:08:28.851Z,1.29
2022-11-23T16:11:39.023Z,1.22
2022-11-23T16:14:45.061Z,1.15
2022-11-23T16:17:52.177Z,1.04
2022-11-23T16:21:05.732Z,0.96
2022-11-23T16:24:26.086Z,0.74
2022-11-23T16:27:32.218Z,0.88
2022-11-23T16:30:42.853Z,0.89
2022-11-23T16:33:48.855Z,0.80
2022-11-23T16:36:59.488Z,0.73
2022-11-23T16:40:05.522Z,0.67
2022-11-23T16:43:15.038Z,0.68
2022-11-23T16:46:21.003Z,0.75
2022-11-23T16:49:27.959Z,0.69
2022-11-23T16:52:39.550Z,0.76
2022-11-23T16:55:47.276Z,0.90
2022-11-23T16:58:55.492Z,0.85
2022-11-23T17:02:02.474Z,0.87
2022-11-23T17:05:17.586Z,0.98
2022-11-23T17:08:27.047Z,0.91
2022-11-23T17:11:33.279Z,0.77
2022-11-23T17:14:42.879Z,0.79
2022-11-23T17:17:51.797Z,0.84
2022-11-23T17:20:59.235Z,1.01
2022-11-23T17:24:09.003Z,1.16
2022-11-23T17:27:21.670Z,1.21
2022-11-23T17:30:27.877Z,1.16
2022-11-23T17:33:34.784Z,1.07
2022-11-23T17:36:42.768Z,1.09
2022-11-23T17:39:53.494Z,1.11
2022-11-23T17:43:00.509Z,1.14
2022-11-23T17:46:08.016Z,1.01
2022-11-23T17:49:18.361Z,0.87
2022-11-23T17:52:27.453Z,0.97
2022-11-23T17:55:36.438Z,0.97
2022-11-23T17:58:43.293Z,1.05
2022-11-23T18:01:49.420Z,1.05
2022-11-23T18:04:56.417Z,1.06
2022-11-23T18:08:02.466Z,1.05
2022-11-23T18:11:12.500Z,0.95
2022-11-23T18:14:19.484Z,0.88
2022-11-23T18:17:26.519Z,0.70
2022-11-23T18:20:32.604Z,0.75
2022-11-23T18:23:40.200Z,0.68
2022-11-23T18:26:49.182Z,0.83
2022-11-23T18:29:56.187Z,0.99
2022-11-23T18:33:02.377Z,0.98
2022-11-23T18:36:13.059Z,1.06
2022-11-23T18:39:19.096Z,1.16
2022-11-23T18:42:28.633Z,1.28
2022-11-23T18:46:10.464Z,0.94
2022-11-23T18:49:17.353Z,0.79
2022-11-23T18:52:23.331Z,0.91
2022-11-23T18:55:30.459Z,0.96
2022-11-23T18:58:37.144Z,0.90
2022-11-23T19:01:46.566Z,1.01
2022-11-23T19:04:52.609Z,0.84
2022-11-23T19:08:05.777Z,0.81
2022-11-23T19:11:17.736Z,0.66
2022-11-23T19:14:25.266Z,0.44
2022-11-23T19:17:34.378Z,0.42
2022-11-23T19:20:42.892Z,0.59
2022-11-23T19:23:54.079Z,0.79
2022-11-23T19:27:01.006Z,0.75
2022-11-23T19:30:09.622Z,0.74
2022-11-23T19:33:20.049Z,0.65
2022-11-23T19:36:28.763Z,0.74
2022-11-23T19:39:36.398Z,0.87
2022-11-23T19:42:42.882Z,0.98
2022-11-23T19:45:57.811Z,0.75
2022-11-23T19:49:08.608Z,0.84
2022-11-23T19:52:15.715Z,0.83
2022-11-23T19:55:22.113Z,0.95
2022-11-23T19:58:31.271Z,0.99
2022-11-23T20:01:37.950Z,1.08
2022-11-23T20:04:47.574Z,1.21
2022-11-23T20:07:54.451Z,1.26
2022-11-23T20:11:01.426Z,1.22
2022-11-23T20:14:08.050Z,1.27
2022-11-23T20:17:15.948Z,1.34
2022-11-23T20:20:24.605Z,1.41
2022-11-23T20:23:32.524Z,1.41
2022-11-23T20:26:39.342Z,1.26
2022-11-23T20:29:46.962Z,1.19
2022-11-23T20:32:54.078Z,1.34
2022-11-23T20:36:17.115Z,1.20
2022-11-23T20:39:23.676Z,1.12
2022-11-23T20:42:32.043Z,1.11
2022-11-23T20:45:38.152Z,1.04
2022-11-23T20:48:48.651Z,0.93
2022-11-23T20:51:57.365Z,0.84
2022-11-23T20:55:04.398Z,0.96
2022-11-23T20:58:10.379Z,1.02
2022-11-23T21:01:19.939Z,0.95
2022-11-23T21:04:26.300Z,0.94
2022-11-23T21:07:35.882Z,0.89
2022-11-23T21:10:54.339Z,0.95
2022-11-23T21:14:16.932Z,1.01
2022-11-23T21:17:24.228Z,1.04
2022-11-23T21:20:36.281Z,1.03
2022-11-23T21:23:49.503Z,0.97
2022-11-23T21:26:59.343Z,1.00
2022-11-23T21:30:05.852Z,0.87
2022-11-23T21:33:12.716Z,0.88
2022-11-23T21:36:18.994Z,0.99
2022-11-23T21:39:30.243Z,0.85
2022-11-23T21:42:37.444Z,0.83
2022-11-23T21:45:44.887Z,0.75
2022-11-23T21:48:50.908Z,1.00
2022-11-23T21:51:57.804Z,0.87
2022-11-23T21:55:06.585Z,0.89
2022-11-23T21:58:13.453Z,0.96
2022-11-23T22:01:23.154Z,1.05
2022-11-23T22:04:30.204Z,1.17
2022-11-23T22:07:36.914Z,1.11
2022-11-23T22:10:46.401Z,1.17
2022-11-23T22:13:58.134Z,0.96
2022-11-23T22:17:06.441Z,1.11
2022-11-23T22:20:14.648Z,1.20
2022-11-23T22:23:21.478Z,1.18
2022-11-23T22:26:30.980Z,1.05
2022-11-23T22:29:37.899Z,1.09
2022-11-23T22:32:46.279Z,1.19
2022-11-23T22:35:53.413Z,1.09
2022-11-23T22:39:02.330Z,1.03
2022-11-23T22:42:11.993Z,0.95
2022-11-23T22:45:18.254Z,0.85
2022-11-23T22:48:25.075Z,0.94
2022-11-23T22:51:33.065Z,1.04
2022-11-23T22:54:40.004Z,1.14
2022-11-23T22:57:48.584Z,1.07
2022-11-23T23:00:56.299Z,1.09
2022-11-23T23:04:04.601Z,1.08
2022-11-23T23:07:11.509Z,1.10
2022-11-23T23:10:17.667Z,1.12
2022-11-23T23:13:27.207Z,1.12
2022-11-23T23:16:33.686Z,1.19
2022-11-23T23:19:40.656Z,1.25
2022-11-23T23:22:47.273Z,1.11
2022-11-23T23:25:57.233Z,0.93
2022-11-23T23:29:05.840Z,1.05
2022-11-23T23:32:13.745Z,1.00
2022-11-23T23:35:19.970Z,0.95
2022-11-23T23:38:30.140Z,0.90
2022-11-23T23:41:36.453Z,0.85
2022-11-23T23:44:45.862Z,0.94
2022-11-23T23:47:51.780Z,0.96
2022-11-23T23:50:59.125Z,0.93
2022-11-23T23:54:05.132Z,0.93
2022-11-23T23:57:12.706Z,0.89
